Time;durP1;ratioP1;P1;durP2;ratioP2;P2;SDS_P1;SDS_P2;PMS_P1;PMS_P2;Temp;Humidity;BMP_temperature;BMP_pressure;BME280_temperature;BME280_humidity;BME280_pressure;Samples;Min_cycle;Max_cycle;Signal;HPM_P1;HPM_P2
2021/10/23 00:01:56;;;;;;;0.10;0.10;;;6.10;99.90;;;;;;6273074;22;20345;-82
2021/10/23 00:04:22;;;;;;;0.10;0.10;;;6.10;99.90;;;;;;6272378;22;20049;-81
2021/10/23 00:06:49;;;;;;;0.10;0.10;;;6.00;99.90;;;;;;6273246;22;20061;-82
2021/10/23 00:09:16;;;;;;;0.10;0.10;;;6.30;99.90;;;;;;6247729;22;20094;-82
2021/10/23 00:11:42;;;;;;;0.10;0.10;;;6.00;99.90;;;;;;6298449;22;20015;-81
2021/10/23 00:14:09;;;;;;;0.10;0.10;;;5.90;99.90;;;;;;6298098;22;20019;-81
2021/10/23 00:16:36;;;;;;;0.10;0.10;;;6.00;99.90;;;;;;6273389;22;20077;-81
2021/10/23 00:19:04;;;;;;;0.10;0.10;;;5.90;99.90;;;;;;6272627;22;20026;-81
2021/10/23 00:21:30;;;;;;;0.10;0.10;;;6.10;99.90;;;;;;6323118;22;20019;-81
2021/10/23 00:23:57;;;;;;;0.10;0.10;;;5.80;99.90;;;;;;6323632;22;20011;-81
2021/10/23 00:26:24;;;;;;;0.10;0.10;;;5.90;99.90;;;;;;6297960;22;20034;-82
2021/10/23 00:28:51;;;;;;;0.10;0.10;;;5.80;99.90;;;;;;6273041;22;20638;-82
2021/10/23 00:31:17;;;;;;;0.10;0.10;;;5.90;99.90;;;;;;6247363;22;20436;-82
2021/10/23 00:33:44;;;;;;;0.10;0.10;;;6.30;99.90;;;;;;6247978;22;20531;-82
2021/10/23 00:36:11;;;;;;;0.10;0.10;;;5.80;99.90;;;;;;6297785;22;20046;-82
2021/10/23 00:38:38;;;;;;;0.10;0.10;;;5.80;99.90;;;;;;6323413;22;20015;-82
2021/10/23 00:41:04;;;;;;;0.10;0.10;;;6.20;99.90;;;;;;6272468;22;20435;-82
2021/10/23 00:43:31;;;;;;;0.00;0.00;;;5.80;99.90;;;;;;6247778;22;20336;-82
2021/10/23 00:45:58;;;;;;;0.10;0.10;;;5.90;99.90;;;;;;6298087;22;20586;-82
2021/10/23 00:48:24;;;;;;;0.10;0.10;;;5.70;99.90;;;;;;6297967;22;20154;-82
2021/10/23 00:50:51;;;;;;;0.10;0.10;;;5.70;99.90;;;;;;6272919;22;20126;-82
2021/10/23 00:53:21;;;;;;;0.08;0.08;;;5.70;99.90;;;;;;6272638;22;20098;-82
2021/10/23 00:55:48;;;;;;;0.10;0.10;;;5.60;99.90;;;;;;6297803;22;20018;-82
2021/10/23 00:58:15;;;;;;;0.10;0.10;;;5.60;99.90;;;;;;6297429;22;20019;-82
2021/10/23 01:00:42;;;;;;;0.10;0.10;;;5.70;99.90;;;;;;6247610;22;20018;-82
2021/10/23 01:03:08;;;;;;;0.10;0.10;;;5.60;99.90;;;;;;6247445;22;20073;-81
2021/10/23 01:05:35;;;;;;;0.10;0.10;;;5.70;99.90;;;;;;6272729;22;20094;-82
2021/10/23 01:08:02;;;;;;;0.10;0.10;;;6.00;99.90;;;;;;6247540;22;20026;-82
2021/10/23 01:10:29;;;;;;;0.10;0.10;;;5.50;99.90;;;;;;6272288;22;20023;-81
2021/10/23 01:12:57;;;;;;;0.10;0.10;;;5.50;99.90;;;;;;6272575;22;20015;-82
2021/10/23 01:15:30;;;;;;;0.10;0.10;;;5.50;99.90;;;;;;6272313;22;20030;-82
2021/10/23 01:17:59;;;;;;;0.10;0.10;;;5.60;99.90;;;;;;6297859;22;20077;-82
2021/10/23 01:20:26;;;;;;;0.10;0.10;;;5.60;99.90;;;;;;6297359;22;20018;-82
2021/10/23 01:22:54;;;;;;;0.10;0.10;;;5.60;99.90;;;;;;6297526;22;20011;-82
2021/10/23 01:25:23;;;;;;;0.10;0.10;;;5.60;99.90;;;;;;6297162;22;20047;-81
2021/10/23 01:27:56;;;;;;;0.10;0.10;;;5.70;99.90;;;;;;6272656;22;20015;-82
2021/10/23 01:30:23;;;;;;;0.10;0.10;;;5.70;99.90;;;;;;6297056;22;20085;-82
2021/10/23 01:32:51;;;;;;;0.10;0.10;;;5.70;99.90;;;;;;6322963;22;20487;-81
2021/10/23 01:35:18;;;;;;;0.10;0.10;;;5.80;99.90;;;;;;6322636;22;20019;-82
2021/10/23 01:37:47;;;;;;;0.10;0.10;;;5.80;99.90;;;;;;6323100;22;20052;-82
2021/10/23 01:40:20;;;;;;;0.10;0.10;;;5.90;99.90;;;;;;6271892;22;20170;-81
2021/10/23 01:42:47;;;;;;;0.10;0.10;;;5.90;99.90;;;;;;6297450;22;20015;-81
2021/10/23 01:45:14;;;;;;;0.10;0.10;;;5.80;99.90;;;;;;6271637;22;20330;-81
2021/10/23 01:47:43;;;;;;;0.10;0.10;;;5.90;99.90;;;;;;6322951;22;20030;-82
2021/10/23 01:50:16;;;;;;;0.00;0.00;;;5.80;99.90;;;;;;6322872;22;20027;-82
2021/10/23 01:52:43;;;;;;;0.10;0.10;;;5.80;99.90;;;;;;6323277;22;20340;-82
2021/10/23 01:55:12;;;;;;;0.10;0.10;;;6.30;99.90;;;;;;6272104;22;20091;-82
2021/10/23 01:57:40;;;;;;;0.10;0.10;;;5.80;99.90;;;;;;6297161;22;20017;-82
2021/10/23 02:00:09;;;;;;;0.10;0.10;;;5.70;99.90;;;;;;6322708;22;20086;-81
2021/10/23 02:02:36;;;;;;;0.10;0.10;;;5.70;99.90;;;;;;6271851;22;20030;-82
2021/10/23 02:05:03;;;;;;;0.10;0.10;;;5.70;99.90;;;;;;6297308;22;20015;-82
2021/10/23 02:07:30;;;;;;;0.10;0.10;;;5.80;99.90;;;;;;6296645;22;20019;-82
2021/10/23 02:09:56;;;;;;;0.10;0.10;;;5.80;99.90;;;;;;6247086;22;20021;-82
2021/10/23 02:12:23;;;;;;;0.10;0.10;;;6.20;99.90;;;;;;6296862;22;20029;-82
2021/10/23 02:14:50;;;;;;;0.10;0.10;;;5.90;99.90;;;;;;6297315;22;20497;-82
2021/10/23 02:17:17;;;;;;;0.10;0.10;;;5.80;99.90;;;;;;6271497;22;20019;-82
2021/10/23 02:19:44;;;;;;;0.10;0.10;;;6.50;99.90;;;;;;6246944;22;20019;-81
2021/10/23 02:22:10;;;;;;;0.10;0.10;;;5.90;99.90;;;;;;6247043;22;20094;-82
2021/10/23 02:24:37;;;;;;;0.10;0.10;;;5.90;99.90;;;;;;6271854;22;20012;-82
2021/10/23 02:27:04;;;;;;;0.10;0.10;;;5.90;99.90;;;;;;6271917;22;20098;-81
2021/10/23 02:29:30;;;;;;;0.10;0.10;;;5.90;99.90;;;;;;6296974;22;20015;-81
2021/10/23 02:31:57;;;;;;;0.10;0.10;;;5.90;99.90;;;;;;6297258;22;20026;-81
2021/10/23 02:34:24;;;;;;;0.10;0.10;;;5.90;99.90;;;;;;6246461;22;20019;-81
2021/10/23 02:36:51;;;;;;;0.00;0.00;;;5.80;99.90;;;;;;6246965;22;20019;-81
2021/10/23 02:39:18;;;;;;;0.10;0.10;;;5.80;99.90;;;;;;6246588;22;20391;-81
2021/10/23 02:41:45;;;;;;;0.10;0.10;;;5.80;99.90;;;;;;6297348;22;20004;-81
2021/10/23 02:44:11;;;;;;;0.10;0.10;;;5.70;99.90;;;;;;6272303;22;20089;-81
2021/10/23 02:46:38;;;;;;;0.10;0.10;;;5.80;99.90;;;;;;6246438;22;20018;-81
2021/10/23 02:49:07;;;;;;;0.10;0.10;;;5.70;99.90;;;;;;6297077;22;20019;-82
2021/10/23 02:51:35;;;;;;;0.10;0.10;;;5.80;99.90;;;;;;6297208;22;20016;-82
2021/10/23 02:54:02;;;;;;;0.10;0.10;;;5.80;99.90;;;;;;6271724;22;20015;-82
2021/10/23 02:56:29;;;;;;;0.10;0.10;;;5.80;99.90;;;;;;6271385;22;20325;-82
2021/10/23 02:58:55;;;;;;;0.10;0.10;;;5.80;99.90;;;;;;6271733;22;20019;-81
2021/10/23 03:01:22;;;;;;;0.10;0.10;;;5.90;99.90;;;;;;6296630;22;20439;-81
2021/10/23 03:03:50;;;;;;;0.10;0.10;;;5.90;99.90;;;;;;6297127;22;20766;-81
2021/10/23 03:06:18;;;;;;;0.05;0.05;;;5.90;99.90;;;;;;6272370;22;20088;-81
2021/10/23 03:08:46;;;;;;;0.10;0.10;;;5.90;99.90;;;;;;6322647;22;20008;-82
2021/10/23 03:11:13;;;;;;;0.10;0.10;;;5.90;99.90;;;;;;6271869;22;20157;-82
2021/10/23 03:13:40;;;;;;;0.10;0.10;;;6.00;99.90;;;;;;6296757;22;20390;-82
2021/10/23 03:16:08;;;;;;;0.10;0.10;;;6.00;99.90;;;;;;6271935;22;20038;-82
2021/10/23 03:18:35;;;;;;;0.10;0.10;;;6.00;99.90;;;;;;6323423;22;20121;-81
2021/10/23 03:21:02;;;;;;;0.10;0.10;;;6.10;99.90;;;;;;6324362;22;20431;-82
2021/10/23 03:23:29;;;;;;;0.10;0.10;;;6.10;99.90;;;;;;6248028;22;20604;-82
2021/10/23 03:25:55;;;;;;;0.10;0.10;;;6.20;99.90;;;;;;6298475;22;20016;-82
2021/10/23 03:28:22;;;;;;;0.10;0.10;;;6.20;99.90;;;;;;6273057;22;20094;-81
2021/10/23 03:30:49;;;;;;;0.10;0.10;;;6.20;99.90;;;;;;6298890;22;20093;-81
2021/10/23 03:33:16;;;;;;;0.10;0.10;;;6.20;99.90;;;;;;6248545;22;20104;-82
2021/10/23 03:35:43;;;;;;;0.00;0.00;;;6.20;99.90;;;;;;6298603;22;20102;-82
2021/10/23 03:38:09;;;;;;;0.10;0.10;;;6.60;99.90;;;;;;6324357;22;20042;-81
2021/10/23 03:40:36;;;;;;;0.10;0.10;;;6.20;99.90;;;;;;6323804;22;20450;-81
2021/10/23 03:43:03;;;;;;;0.10;0.10;;;6.20;99.90;;;;;;6273494;22;20444;-82
2021/10/23 03:45:29;;;;;;;0.10;0.10;;;6.10;99.90;;;;;;6298198;22;20344;-83
2021/10/23 03:47:56;;;;;;;0.10;0.10;;;6.10;99.90;;;;;;6248683;22;20026;-81
2021/10/23 03:50:23;;;;;;;0.10;0.10;;;6.20;99.90;;;;;;6298200;22;20038;-82
2021/10/23 03:52:49;;;;;;;0.10;0.10;;;6.10;99.90;;;;;;6273106;22;20026;-82
2021/10/23 03:55:16;;;;;;;0.10;0.10;;;6.00;99.90;;;;;;6247886;22;20451;-82
2021/10/23 03:57:43;;;;;;;0.08;0.08;;;6.00;99.90;;;;;;6247631;22;20015;-81
2021/10/23 04:00:10;;;;;;;0.10;0.10;;;6.10;99.90;;;;;;6298567;22;20012;-82
2021/10/23 04:02:37;;;;;;;0.10;0.10;;;6.10;99.90;;;;;;6248031;22;20012;-82
2021/10/23 04:05:04;;;;;;;0.10;0.10;;;6.10;99.90;;;;;;6273315;22;20025;-82
2021/10/23 04:07:31;;;;;;;0.10;0.10;;;6.10;99.90;;;;;;6248180;22;20094;-82
2021/10/23 04:09:58;;;;;;;0.10;0.10;;;6.10;99.90;;;;;;6298556;22;20047;-82
2021/10/23 04:12:25;;;;;;;0.10;0.10;;;6.20;99.90;;;;;;6298946;22;20023;-82
2021/10/23 04:14:53;;;;;;;0.10;0.10;;;6.20;99.90;;;;;;6273259;22;20348;-82
2021/10/23 04:17:19;;;;;;;0.10;0.10;;;6.20;99.90;;;;;;6273166;22;20015;-81
2021/10/23 04:19:46;;;;;;;0.10;0.10;;;6.30;99.90;;;;;;6323363;22;20026;-82
2021/10/23 04:22:14;;;;;;;0.10;0.10;;;6.30;99.90;;;;;;6273031;22;20015;-82
2021/10/23 04:24:41;;;;;;;0.10;0.10;;;6.30;99.90;;;;;;6298106;22;20011;-82
2021/10/23 04:27:07;;;;;;;0.10;0.10;;;6.20;99.90;;;;;;6298510;22;20015;-81
2021/10/23 04:29:34;;;;;;;0.10;0.10;;;6.20;99.90;;;;;;6272522;22;20093;-81
2021/10/23 04:32:01;;;;;;;0.10;0.10;;;6.20;99.90;;;;;;6298354;22;20019;-81
2021/10/23 04:34:28;;;;;;;0.10;0.10;;;6.00;99.90;;;;;;6248073;22;20452;-81
2021/10/23 04:36:55;;;;;;;0.10;0.10;;;6.00;99.90;;;;;;6298216;22;20019;-81
2021/10/23 04:39:21;;;;;;;0.10;0.10;;;5.90;99.90;;;;;;6247673;22;20402;-81
2021/10/23 04:41:48;;;;;;;0.10;0.10;;;5.90;99.90;;;;;;6247453;22;20577;-81
2021/10/23 04:44:15;;;;;;;0.10;0.10;;;5.90;99.90;;;;;;6297879;22;20019;-81
2021/10/23 04:46:41;;;;;;;0.10;0.10;;;5.90;99.90;;;;;;6297912;22;20070;-81
2021/10/23 04:49:09;;;;;;;0.10;0.10;;;5.80;99.90;;;;;;6298184;22;20098;-81
2021/10/23 04:51:36;;;;;;;0.10;0.10;;;5.70;99.90;;;;;;6323373;22;20098;-81
2021/10/23 04:54:02;;;;;;;0.10;0.10;;;5.70;99.90;;;;;;6298130;22;20054;-81
2021/10/23 04:56:29;;;;;;;0.10;0.10;;;6.00;99.90;;;;;;6247562;22;20075;-82
2021/10/23 04:58:56;;;;;;;0.00;0.00;;;5.60;99.90;;;;;;6322991;22;20022;-81
2021/10/23 05:01:22;;;;;;;0.10;0.10;;;5.50;99.90;;;;;;6247709;22;20016;-81
2021/10/23 05:03:49;;;;;;;0.10;0.10;;;5.70;99.90;;;;;;6247317;22;20018;-82
2021/10/23 05:06:16;;;;;;;0.10;0.10;;;5.40;99.90;;;;;;6272653;22;20340;-82
2021/10/23 05:08:42;;;;;;;0.10;0.10;;;5.40;99.90;;;;;;6272307;22;20019;-82
2021/10/23 05:11:09;;;;;;;0.10;0.10;;;5.50;99.90;;;;;;6247620;22;20026;-81
2021/10/23 05:13:36;;;;;;;0.10;0.10;;;5.40;99.90;;;;;;6297674;22;20022;-81
2021/10/23 05:16:03;;;;;;;0.10;0.10;;;5.40;99.90;;;;;;6272454;22;20057;-81
2021/10/23 05:18:30;;;;;;;0.10;0.10;;;5.40;99.90;;;;;;6272275;22;20452;-81
2021/10/23 05:20:57;;;;;;;0.10;0.10;;;5.40;99.90;;;;;;6246674;22;20022;-81
2021/10/23 05:23:23;;;;;;;0.10;0.10;;;5.40;99.90;;;;;;6272216;22;20023;-81
2021/10/23 05:25:50;;;;;;;0.10;0.10;;;5.40;99.90;;;;;;6247104;22;20015;-81
2021/10/23 05:28:17;;;;;;;0.13;0.13;;;5.40;99.90;;;;;;6297676;22;20015;-81
2021/10/23 05:30:43;;;;;;;0.10;0.10;;;5.80;99.90;;;;;;6272268;22;20023;-81
2021/10/23 05:33:10;;;;;;;0.10;0.10;;;5.90;99.90;;;;;;6272467;22;20015;-81
2021/10/23 05:35:37;;;;;;;0.10;0.10;;;5.40;99.90;;;;;;6322825;22;20020;-81
2021/10/23 05:38:03;;;;;;;0.10;0.10;;;5.40;99.90;;;;;;6247136;22;20023;-82
2021/10/23 05:40:31;;;;;;;0.10;0.10;;;5.40;99.90;;;;;;6297645;22;20018;-81
2021/10/23 05:42:58;;;;;;;0.10;0.10;;;5.40;99.90;;;;;;6246927;22;20014;-82
2021/10/23 05:45:25;;;;;;;0.10;0.10;;;6.00;99.90;;;;;;6297118;22;20019;-81
2021/10/23 05:47:51;;;;;;;0.10;0.10;;;5.50;99.90;;;;;;6247003;22;20103;-81
2021/10/23 05:50:18;;;;;;;0.10;0.10;;;5.70;99.90;;;;;;6271800;22;20073;-81
2021/10/23 05:52:45;;;;;;;0.10;0.10;;;5.80;99.90;;;;;;6246550;22;20019;-82
2021/10/23 05:55:11;;;;;;;0.10;0.10;;;5.70;99.90;;;;;;6297290;22;20095;-81
2021/10/23 05:57:38;;;;;;;0.10;0.10;;;5.70;99.90;;;;;;6296912;22;20478;-81
2021/10/23 06:00:07;;;;;;;0.10;0.10;;;5.80;99.90;;;;;;6271887;22;20015;-81
2021/10/23 06:02:34;;;;;;;0.10;0.10;;;5.70;99.90;;;;;;6272364;22;20356;-81
2021/10/23 06:05:02;;;;;;;0.10;0.10;;;5.80;99.90;;;;;;6246460;22;20018;-81
2021/10/23 06:07:36;;;;;;;0.10;0.10;;;5.70;99.90;;;;;;6246542;22;20069;-81
2021/10/23 06:10:06;;;;;;;0.10;0.10;;;5.80;99.90;;;;;;6296973;22;20085;-81
2021/10/23 06:12:33;;;;;;;0.10;0.10;;;5.60;99.90;;;;;;6296863;22;20348;-81
2021/10/23 06:14:59;;;;;;;0.10;0.10;;;5.60;99.90;;;;;;6322022;22;20081;-81
2021/10/23 06:17:27;;;;;;;0.10;0.10;;;5.70;99.90;;;;;;6296947;22;20099;-81
2021/10/23 06:19:54;;;;;;;0.10;0.10;;;5.80;99.90;;;;;;6296588;22;20328;-81
2021/10/23 06:22:21;;;;;;;0.10;0.10;;;5.70;99.90;;;;;;6272113;22;20015;-81
2021/10/23 06:24:47;;;;;;;0.10;0.10;;;5.90;99.90;;;;;;6246590;22;20074;-81
2021/10/23 06:27:14;;;;;;;0.10;0.10;;;5.80;99.90;;;;;;6247090;22;20102;-81
2021/10/23 06:29:41;;;;;;;0.10;0.10;;;5.80;99.90;;;;;;6297167;22;20019;-81
2021/10/23 06:32:08;;;;;;;0.10;0.10;;;5.90;99.90;;;;;;6271830;22;20344;-81
2021/10/23 06:34:38;;;;;;;0.10;0.10;;;5.90;99.90;;;;;;6271905;22;20023;-81
2021/10/23 06:37:04;;;;;;;0.10;0.10;;;5.90;99.90;;;;;;6321948;22;20019;-82
2021/10/23 06:39:31;;;;;;;0.10;0.10;;;6.00;99.90;;;;;;6271785;22;20395;-82
2021/10/23 06:41:58;;;;;;;0.10;0.10;;;6.00;99.90;;;;;;6296861;22;20015;-81
2021/10/23 06:44:24;;;;;;;0.10;0.10;;;6.00;99.90;;;;;;6271324;22;20020;-81
2021/10/23 06:46:51;;;;;;;0.10;0.10;;;6.10;99.90;;;;;;6246491;22;20016;-81
2021/10/23 06:49:18;;;;;;;0.10;0.10;;;6.10;99.90;;;;;;6246504;22;20399;-81
2021/10/23 06:51:44;;;;;;;0.10;0.10;;;6.20;99.90;;;;;;6296341;22;20019;-82
2021/10/23 06:54:11;;;;;;;0.10;0.10;;;6.30;99.90;;;;;;6273647;22;20021;-81
2021/10/23 06:56:38;;;;;;;0.10;0.10;;;6.40;99.90;;;;;;6248935;22;20094;-81
2021/10/23 06:59:05;;;;;;;0.10;0.10;;;6.50;99.90;;;;;;6273272;22;20023;-81
2021/10/23 07:01:32;;;;;;;0.00;0.00;;;6.40;99.90;;;;;;6273844;22;20015;-81
2021/10/23 07:03:58;;;;;;;0.10;0.10;;;6.50;99.90;;;;;;6248288;22;20011;-81
2021/10/23 07:06:25;;;;;;;0.10;0.10;;;6.50;99.90;;;;;;6299026;22;20011;-81
2021/10/23 07:08:52;;;;;;;0.00;0.00;;;6.50;99.90;;;;;;6298873;22;20033;-81
2021/10/23 07:11:18;;;;;;;0.10;0.10;;;6.60;99.90;;;;;;6298825;22;20022;-81
2021/10/23 07:13:45;;;;;;;0.10;0.10;;;6.70;99.90;;;;;;6273673;22;20023;-81
2021/10/23 07:16:12;;;;;;;0.10;0.10;;;6.60;99.90;;;;;;6298659;22;20019;-81
2021/10/23 07:18:38;;;;;;;0.10;0.10;;;6.60;99.90;;;;;;6298495;22;20011;-81
2021/10/23 07:21:05;;;;;;;0.10;0.10;;;6.50;99.90;;;;;;6250364;22;20092;-81
2021/10/23 07:23:32;;;;;;;0.10;0.10;;;6.50;99.90;;;;;;6273451;22;20092;-81
2021/10/23 07:25:59;;;;;;;0.10;0.10;;;6.50;99.90;;;;;;6248209;22;20022;-81
2021/10/23 07:28:26;;;;;;;0.10;0.10;;;6.50;99.90;;;;;;6248403;22;20436;-81
2021/10/23 07:30:53;;;;;;;0.10;0.10;;;6.50;99.90;;;;;;6273172;22;20392;-80
2021/10/23 07:33:20;;;;;;;0.10;0.10;;;6.60;99.90;;;;;;6273456;22;20018;-81
2021/10/23 07:35:47;;;;;;;0.10;0.10;;;6.50;99.90;;;;;;6298611;22;20015;-80
2021/10/23 07:38:14;;;;;;;0.10;0.10;;;6.60;99.90;;;;;;6273000;22;20444;-81
2021/10/23 07:40:41;;;;;;;0.10;0.10;;;6.70;99.90;;;;;;6273240;22;20062;-81
2021/10/23 07:43:08;;;;;;;0.10;0.10;;;6.80;99.90;;;;;;6247646;22;20094;-80
2021/10/23 07:45:35;;;;;;;0.10;0.10;;;6.90;99.90;;;;;;6298130;22;20317;-81
2021/10/23 07:48:03;;;;;;;0.10;0.10;;;7.00;99.90;;;;;;6247658;22;20057;-81
2021/10/23 07:50:30;;;;;;;0.10;0.10;;;7.40;99.90;;;;;;6248916;22;20326;-81
2021/10/23 07:53:01;;;;;;;0.10;0.10;;;7.20;99.90;;;;;;6247832;22;20026;-81
2021/10/23 07:55:29;;;;;;;0.10;0.10;;;7.30;99.90;;;;;;6250165;22;20007;-81
2021/10/23 07:57:56;;;;;;;0.00;0.00;;;7.40;99.90;;;;;;6272916;22;20022;-81
2021/10/23 08:00:23;;;;;;;0.10;0.10;;;7.50;99.90;;;;;;6248120;22;20008;-81
2021/10/23 08:02:52;;;;;;;0.10;0.10;;;7.80;99.90;;;;;;6247874;22;20019;-81
2021/10/23 08:05:22;;;;;;;0.10;0.10;;;7.60;99.90;;;;;;6297740;22;20042;-81
2021/10/23 08:07:51;;;;;;;0.10;0.10;;;7.70;99.90;;;;;;6323969;22;20020;-81
2021/10/23 08:10:19;;;;;;;0.10;0.10;;;7.70;99.90;;;;;;6297705;22;20015;-81
2021/10/23 08:12:46;;;;;;;0.10;0.10;;;7.70;99.90;;;;;;6272839;22;20019;-80
2021/10/23 08:15:13;;;;;;;0.10;0.10;;;7.70;99.90;;;;;;6297674;22;20057;-80
2021/10/23 08:17:43;;;;;;;0.10;0.10;;;7.70;99.90;;;;;;6273001;22;20026;-80
2021/10/23 08:20:12;;;;;;;0.10;0.10;;;7.70;99.90;;;;;;6297585;22;20050;-80
2021/10/23 08:22:39;;;;;;;0.10;0.10;;;7.70;99.90;;;;;;6272458;22;20444;-80
2021/10/23 08:25:09;;;;;;;0.10;0.10;;;7.70;99.90;;;;;;6272486;22;20011;-80
2021/10/23 08:27:43;;;;;;;0.10;0.10;;;7.70;99.90;;;;;;6298029;22;20344;-81
2021/10/23 08:30:12;;;;;;;0.10;0.10;;;7.70;99.90;;;;;;6273018;22;20474;-81
2021/10/23 08:32:41;;;;;;;0.10;0.10;;;7.80;99.90;;;;;;6297897;22;20061;-81
2021/10/23 08:35:13;;;;;;;0.10;0.10;;;7.70;99.90;;;;;;6272653;22;20443;-80
2021/10/23 08:37:41;;;;;;;0.10;0.10;;;7.80;99.90;;;;;;6297799;22;20026;-81
2021/10/23 08:40:09;;;;;;;0.00;0.00;;;7.90;99.90;;;;;;6297390;22;20386;-80
2021/10/23 08:42:36;;;;;;;0.03;0.03;;;8.00;99.90;;;;;;6298142;22;20015;-81
2021/10/23 08:45:08;;;;;;;0.10;0.10;;;8.10;99.90;;;;;;6297265;22;20448;-81
2021/10/23 08:47:43;;;;;;;0.10;0.10;;;8.30;99.90;;;;;;6272235;22;20098;-81
2021/10/23 08:50:16;;;;;;;0.10;0.10;;;8.40;99.90;;;;;;6297529;22;20015;-81
2021/10/23 08:52:52;;;;;;;0.10;0.10;;;8.50;99.90;;;;;;6297669;22;20012;-80
2021/10/23 08:55:20;;;;;;;0.03;0.03;;;8.60;99.90;;;;;;6322817;22;20050;-80
2021/10/23 08:57:46;;;;;;;0.10;0.10;;;8.80;99.90;;;;;;6297368;22;20019;-80
2021/10/23 09:00:14;;;;;;;0.00;0.00;;;8.90;99.90;;;;;;6246999;22;20015;-82
2021/10/23 09:02:41;;;;;;;0.00;0.00;;;9.00;99.90;;;;;;6323274;22;20396;-83
2021/10/23 09:05:08;;;;;;;0.00;0.00;;;9.00;99.90;;;;;;6322840;22;20112;-86
2021/10/23 09:07:52;;;;;;;0.00;0.00;;;9.00;99.90;;;;;;6272159;22;20444;-83
2021/10/23 09:10:27;;;;;;;0.08;0.08;;;9.10;99.90;;;;;;6297282;22;20012;-84
2021/10/23 09:13:05;;;;;;;0.10;0.10;;;9.10;99.90;;;;;;6298093;22;20026;-82
2021/10/23 09:15:38;;;;;;;0.05;0.05;;;9.10;99.90;;;;;;6297430;22;20026;-82
2021/10/23 09:18:05;;;;;;;0.10;0.10;;;9.20;99.90;;;;;;6296677;22;20050;-79
2021/10/23 09:20:37;;;;;;;0.00;0.00;;;9.30;99.90;;;;;;6271682;22;20011;-79
2021/10/23 09:23:05;;;;;;;0.10;0.10;;;9.40;99.90;;;;;;6322555;22;20088;-79
2021/10/23 09:25:35;;;;;;;0.00;0.00;;;9.50;99.90;;;;;;6272337;22;20060;-80
2021/10/23 09:28:12;;;;;;;0.10;0.10;;;9.60;99.90;;;;;;6271832;22;20015;-79
2021/10/23 09:30:43;;;;;;;0.00;0.00;;;9.70;99.90;;;;;;6323114;22;20015;-79
2021/10/23 09:33:21;;;;;;;0.00;0.00;;;9.80;99.90;;;;;;6296492;22;20072;-79
2021/10/23 09:36:03;;;;;;;0.00;0.00;;;9.90;99.90;;;;;;6322644;22;20325;-79
2021/10/23 09:38:33;;;;;;;0.00;0.00;;;10.00;99.90;;;;;;6296708;22;20026;-79
2021/10/23 09:41:12;;;;;;;0.00;0.00;;;10.00;99.90;;;;;;6297131;22;20011;-80
2021/10/23 09:43:38;;;;;;;0.10;0.10;;;10.10;99.90;;;;;;6322205;22;20019;-80
2021/10/23 09:46:11;;;;;;;0.00;0.00;;;10.10;99.90;;;;;;6246158;22;20041;-80
2021/10/23 09:48:49;;;;;;;0.10;0.10;;;10.10;99.90;;;;;;6272656;22;20015;-80
2021/10/23 09:51:31;;;;;;;0.10;0.10;;;10.20;99.90;;;;;;6296839;22;20022;-80
2021/10/23 09:54:04;;;;;;;0.00;0.00;;;10.30;99.90;;;;;;6322654;22;20047;-80
2021/10/23 09:56:33;;;;;;;0.00;0.00;;;10.30;99.90;;;;;;6296876;22;20019;-80
2021/10/23 09:59:00;;;;;;;0.00;0.00;;;10.30;99.90;;;;;;6296822;22;20015;-80
2021/10/23 10:01:32;;;;;;;0.00;0.00;;;10.30;99.90;;;;;;6322633;22;20058;-80
2021/10/23 10:04:03;;;;;;;0.00;0.00;;;10.30;99.90;;;;;;6297391;22;20015;-79
2021/10/23 10:06:34;;;;;;;0.05;0.05;;;10.30;99.90;;;;;;6322283;22;20011;-79
2021/10/23 10:09:03;;;;;;;0.00;0.00;;;10.40;99.90;;;;;;6297235;22;20332;-80
2021/10/23 10:11:30;;;;;;;0.00;0.00;;;10.50;99.90;;;;;;6296937;22;20015;-79
2021/10/23 10:13:58;;;;;;;0.00;0.00;;;10.50;99.90;;;;;;6297007;22;20015;-81
2021/10/23 10:16:26;;;;;;;0.00;0.00;;;10.70;99.90;;;;;;6296453;22;20451;-81
2021/10/23 10:18:56;;;;;;;0.00;0.00;;;10.70;99.90;;;;;;6297211;22;20015;-81
2021/10/23 10:21:24;;;;;;;0.00;0.00;;;10.80;99.90;;;;;;6322426;22;20012;-81
2021/10/23 10:23:54;;;;;;;0.05;0.05;;;10.80;99.90;;;;;;6297065;22;20069;-80
2021/10/23 10:26:21;;;;;;;0.00;0.00;;;10.80;99.90;;;;;;6271459;22;20011;-80
2021/10/23 10:32:20;;;;;;;0.00;0.00;;;10.90;99.90;;;;;;6322584;22;20061;-80
2021/10/23 10:42:51;;;;;;;0.00;0.00;;;11.10;99.90;;;;;;6322180;22;20077;-80
2021/10/23 10:45:28;;;;;;;0.00;0.00;;;11.10;99.90;;;;;;6321493;22;20098;-80
2021/10/23 10:48:11;;;;;;;0.00;0.00;;;11.20;99.90;;;;;;6297055;22;20021;-80
2021/10/23 10:50:40;;;;;;;0.00;0.00;;;11.20;99.90;;;;;;6297108;22;20026;-80
2021/10/23 10:53:23;;;;;;;0.10;0.10;;;11.20;99.90;;;;;;6297210;22;20454;-80
2021/10/23 10:56:06;;;;;;;0.00;0.00;;;11.20;99.90;;;;;;6322333;22;20098;-80
2021/10/23 10:58:55;;;;;;;0.00;0.00;;;11.20;99.90;;;;;;6296455;22;20113;-81
2021/10/23 11:01:27;;;;;;;0.00;0.00;;;11.20;99.90;;;;;;6321853;22;20022;-80
2021/10/23 11:04:06;;;;;;;0.00;0.00;;;11.20;99.90;;;;;;6296687;22;20015;-80
2021/10/23 11:06:35;;;;;;;0.00;0.00;;;11.20;99.90;;;;;;6321905;22;20098;-80
2021/10/23 11:09:08;;;;;;;0.00;0.00;;;11.30;99.90;;;;;;6296946;22;20019;-80
2021/10/23 11:11:44;;;;;;;0.00;0.00;;;11.30;99.90;;;;;;6324201;22;20026;-80
2021/10/23 11:16:58;;;;;;;0.00;0.00;;;11.30;99.90;;;;;;6322804;22;20034;-80
2021/10/23 11:19:44;;;;;;;0.00;0.00;;;11.40;99.90;;;;;;6273125;22;20069;-79
2021/10/23 11:22:20;;;;;;;0.00;0.00;;;11.40;99.90;;;;;;6297312;22;20340;-80
2021/10/23 11:24:55;;;;;;;0.00;0.00;;;11.40;99.90;;;;;;6297415;22;20012;-80
2021/10/23 11:27:44;;;;;;;0.00;0.00;;;11.30;99.90;;;;;;6322107;22;20793;-80
2021/10/23 11:30:22;;;;;;;0.00;0.00;;;11.30;99.90;;;;;;6323288;22;20020;-80
2021/10/23 11:33:04;;;;;;;0.00;0.00;;;11.40;99.90;;;;;;6297192;22;20397;-79
2021/10/23 11:35:35;;;;;;;0.00;0.00;;;11.40;99.90;;;;;;6322511;22;20011;-80
2021/10/23 11:38:04;;;;;;;0.08;0.08;;;11.50;99.90;;;;;;6322999;22;20103;-86
2021/10/23 11:40:31;;;;;;;0.08;0.08;;;11.50;99.90;;;;;;6323841;22;20463;-84
2021/10/23 11:42:58;;;;;;;0.00;0.00;;;11.60;99.90;;;;;;6325000;22;20126;-84
2021/10/23 11:45:33;;;;;;;0.00;0.00;;;11.70;99.90;;;;;;6324317;22;20050;-84
2021/10/23 11:48:05;;;;;;;0.00;0.00;;;11.70;99.90;;;;;;6325470;22;20386;-82
2021/10/23 11:50:35;;;;;;;0.00;0.00;;;11.70;99.90;;;;;;6324442;22;20019;-84
2021/10/23 11:53:13;;;;;;;0.00;0.00;;;11.70;99.90;;;;;;6298752;22;20100;-85
2021/10/23 11:55:48;;;;;;;0.00;0.00;;;11.70;99.90;;;;;;6298921;22;20448;-84
2021/10/23 11:58:28;;;;;;;0.00;0.00;;;11.70;99.90;;;;;;6299158;22;20026;-84
2021/10/23 12:01:03;;;;;;;0.10;0.10;;;11.70;99.90;;;;;;6298516;22;20456;-84
2021/10/23 12:03:43;;;;;;;0.00;0.00;;;11.70;99.90;;;;;;6324439;22;20015;-84
2021/10/23 12:06:24;;;;;;;0.00;0.00;;;11.60;99.90;;;;;;6274354;22;20050;-84
2021/10/23 12:08:56;;;;;;;0.00;0.00;;;11.50;99.90;;;;;;6298925;22;20012;-85
2021/10/23 12:11:29;;;;;;;0.00;0.00;;;11.60;99.90;;;;;;6273238;22;20027;-85
2021/10/23 12:14:06;;;;;;;0.00;0.00;;;11.50;99.90;;;;;;6324089;22;20025;-83
2021/10/23 12:16:45;;;;;;;1.00;0.43;;;11.60;99.90;;;;;;6299173;22;20022;-80
2021/10/23 12:19:13;;;;;;;0.00;0.00;;;11.50;99.90;;;;;;6324337;22;20019;-83
2021/10/23 12:21:44;;;;;;;0.00;0.00;;;11.50;99.90;;;;;;6298067;22;20022;-83
2021/10/23 12:24:24;;;;;;;0.00;0.00;;;11.50;99.90;;;;;;6298327;22;20090;-83
2021/10/23 12:27:23;;;;;;;0.00;0.00;;;11.50;99.90;;;;;;6298405;22;20015;-83
2021/10/23 12:29:52;;;;;;;0.30;0.30;;;11.60;99.90;;;;;;6298052;22;20077;-84
2021/10/23 12:32:26;;;;;;;0.00;0.00;;;11.60;99.90;;;;;;6298289;22;20443;-82
2021/10/23 12:34:55;;;;;;;0.00;0.00;;;11.60;99.90;;;;;;6300140;22;20015;-80
2021/10/23 12:37:31;;;;;;;0.00;0.00;;;11.50;99.90;;;;;;6324099;22;20015;-80
2021/10/23 12:40:26;;;;;;;0.00;0.00;;;11.60;99.90;;;;;;6298312;22;20509;-79
2021/10/23 12:43:10;;;;;;;0.00;0.00;;;11.50;99.90;;;;;;6287540;22;20015;-81
2021/10/23 12:45:43;;;;;;;0.00;0.00;;;11.40;99.90;;;;;;6297936;22;20019;-82
2021/10/23 12:48:17;;;;;;;0.00;0.00;;;11.40;99.90;;;;;;6298339;22;20015;-83
2021/10/23 12:50:49;;;;;;;0.00;0.00;;;11.50;99.90;;;;;;6273396;22;20011;-82
2021/10/23 12:53:16;;;;;;;0.00;0.00;;;11.60;99.90;;;;;;6298781;22;20021;-82
2021/10/23 12:55:43;;;;;;;0.00;0.00;;;11.60;99.90;;;;;;6248183;22;20033;-82
2021/10/23 12:58:10;;;;;;;0.00;0.00;;;11.70;99.90;;;;;;6298344;22;20019;-80
2021/10/23 13:00:39;;;;;;;0.00;0.00;;;11.60;99.90;;;;;;6297893;22;20110;-82
2021/10/23 13:03:06;;;;;;;0.10;0.10;;;11.60;99.90;;;;;;6323709;22;20448;-82
2021/10/23 13:05:33;;;;;;;0.00;0.00;;;11.60;99.90;;;;;;6273542;22;20090;-81
2021/10/23 13:08:00;;;;;;;0.00;0.00;;;11.60;99.90;;;;;;6298277;22;20074;-81
2021/10/23 13:10:26;;;;;;;0.00;0.00;;;11.60;99.90;;;;;;6323536;22;20441;-79
2021/10/23 13:12:53;;;;;;;0.00;0.00;;;11.50;99.90;;;;;;6273347;22;20034;-82
2021/10/23 13:15:21;;;;;;;0.00;0.00;;;11.60;99.90;;;;;;6298404;22;20019;-81
2021/10/23 13:17:47;;;;;;;0.00;0.00;;;11.50;99.90;;;;;;6273349;22;20016;-81
2021/10/23 13:20:15;;;;;;;0.00;0.00;;;11.60;99.90;;;;;;6248351;22;20383;-82